ADDS METAR Data INFO
IDs: Format: Raw Decoded Include TAF

Data at: 1716 UTC 23 Oct 2017

KIWI 231653Z AUTO 17008KT 10SM CLR 16/11 A3033 RMK AO2 SLP270 T01610106
KIWI 231553Z AUTO 22005KT 10SM CLR 15/11 A3036 RMK AO2 SLP279 T01500106
KIWI 231521Z AUTO 19006KT 10SM FEW010 14/10 A3037 RMK AO2 T01390100
KIWI 231510Z AUTO 22005KT 10SM BKN010 13/10 A3038 RMK AO2 CIG 008V012 T01330100
KIWI 231453Z AUTO VRB06KT 10SM OVC009 13/10 A3038 RMK AO2 CIG 007V011 SLP288 T01280100 58001
KIWI 231404Z AUTO 23005KT 10SM OVC005 12/11 A3040 RMK AO2 T01220106
KIWI 231353Z AUTO 22004KT 10SM OVC004 12/11 A3040 RMK AO2 CIG 004V008 SLP294 T01220106
KIWI 231346Z AUTO 21005KT 10SM OVC004 12/11 A3040 RMK AO2 T01220106
KIWI 231329Z AUTO 23003KT 10SM OVC005 12/11 A3040 RMK AO2 T01220111
KIWI 231253Z AUTO VRB03KT 10SM OVC003 12/11 A3040 RMK AO2 SLP294 T01170111
KIWI 231153Z AUTO 00000KT 6SM BR OVC003 12/11 A3038 RMK AO2 SLP289 T01170111 10117 20111 55002
KIWI 231053Z AUTO 00000KT 6SM BR OVC003 12/11 A3038 RMK AO2 SLP288 T01170111
KIWI 231015Z AUTO 00000KT 3SM BR OVC002 12/11 A3039 RMK AO2 T01170111
KIWI 230953Z AUTO 00000KT 1 3/4SM BR OVC002 12/11 A3039 RMK AO2 SLP291 T01170111
KIWI 230943Z AUTO 00000KT 2SM BR OVC002 12/11 A3039 RMK AO2 T01170111
KIWI 230934Z AUTO 00000KT 1 3/4SM BR OVC002 12/11 A3039 RMK AO2 T01170111
KIWI 230923Z AUTO 24003KT 1 1/4SM BR OVC002 12/11 A3039 RMK AO2 T01170111
KIWI 230915Z AUTO 00000KT 1 1/2SM BR OVC002 12/11 A3039 RMK AO2 T01170111
KIWI 230853Z AUTO 00000KT 2SM BR OVC002 12/11 A3039 RMK AO2 SLP290 T01170111 55011
KIWI 230830Z AUTO 00000KT 4SM BR OVC002 12/11 A3039 RMK AO2 T01170111
KIWI 230753Z AUTO 00000KT 2SM BR OVC002 12/11 A3038 RMK AO2 SLP289 T01170111
KIWI 230705Z AUTO 00000KT 1 1/2SM BR OVC002 11/11 A3039 RMK AO2 T01110106
KIWI 230653Z AUTO 00000KT 2 1/2SM BR OVC003 11/11 A3040 RMK AO2 SLP294 T01110106
KIWI 230646Z AUTO 00000KT 2 1/2SM BR OVC003 11/11 A3040 RMK AO2 T01110106
KIWI 230553Z AUTO 00000KT 4SM BR OVC003 11/11 A3042 RMK AO2 SLP301 T01110106 10122 20094 58006
KIWI 230453Z AUTO 00000KT 6SM BR OVC004 12/11 A3043 RMK AO2 SLP304 T01170106 401830072
KIWI 230402Z AUTO 00000KT 7SM OVC004 12/11 A3044 RMK AO2 T01220106
KIWI 230353Z AUTO 00000KT 9SM OVC005 12/10 A3044 RMK AO2 SLP308 T01220100
KIWI 230253Z AUTO 00000KT 10SM OVC006 12/09 A3044 RMK AO2 SLP307 T01220089 58004
KIWI 230203Z AUTO 00000KT 10SM OVC009 12/08 A3045 RMK AO2 T01170083
KIWI 230153Z AUTO 00000KT 10SM OVC010 12/09 A3045 RMK AO2 SLP311 T01170089
KIWI 230053Z AUTO 00000KT 10SM OVC011 11/08 A3045 RMK AO2 SLP310 T01110083
KIWI 230000Z AUTO 00000KT 10SM BKN013 09/07 A3045 RMK AO2 T00940072
KIWI 222353Z AUTO 00000KT 10SM SCT013 09/07 A3045 RMK AO2 SLP312 T00940072 10178 20094 56001
KIWI 222253Z AUTO 08003KT 10SM CLR 11/07 A3045 RMK AO2 SLP312 T01060072
KIWI 222153Z AUTO 09003KT 10SM CLR 13/07 A3045 RMK AO2 SLP312 T01280067
KIWI 222053Z AUTO 10005KT 10SM CLR 14/07 A3046 RMK AO2 SLP313 T01440072 53002
KIWI 221953Z AUTO 12006KT 10SM CLR 15/09 A3045 RMK AO2 SLP311 T01500089
KIWI 221853Z AUTO 10007KT 10SM CLR 16/09 A3045 RMK AO2 SLP311 T01610094
KIWI 221753Z AUTO 12005KT 10SM CLR 18/10 A3045 RMK AO2 SLP310 T01780100 10183 20089 58006
KIWI 221653Z AUTO 12006KT 10SM CLR 17/09 A3046 RMK AO2 SLP313 T01720094
KIWI 221553Z AUTO 12005KT 10SM CLR 17/10 A3047 RMK AO2 SLP317 T01720100
KIWI 221453Z AUTO 08004KT 10SM CLR 16/11 A3047 RMK AO2 SLP317 T01610106 51010
KIWI 221353Z AUTO 07005KT 10SM CLR 14/10 A3046 RMK AO2 SLP316 T01390100
KIWI 221253Z AUTO 00000KT 10SM CLR 12/09 A3046 RMK AO2 SLP315 T01220094
KIWI 221153Z AUTO 00000KT 10SM CLR 09/08 A3044 RMK AO2 SLP307 T00890078 10089 20072 53022
KIWI 221053Z AUTO 00000KT 10SM CLR 08/07 A3041 RMK AO2 SLP296 T00780067
KIWI 220953Z AUTO 00000KT 10SM CLR 08/07 A3038 RMK AO2 SLP288 T00780067
KIWI 220853Z AUTO 00000KT 10SM CLR 08/07 A3037 RMK AO2 SLP285 T00780067 51012
KIWI 220753Z AUTO 00000KT 10SM CLR 08/07 A3036 RMK AO2 SLP281 T00830072
KIWI 220653Z AUTO 00000KT 10SM CLR 08/07 A3035 RMK AO2 SLP277 T00830072
KIWI 220553Z AUTO 00000KT 10SM CLR 08/07 A3034 RMK AO2 SLP272 T00830072 10106 20083 51005